createdAt,value
2023-05-05T00:02:23.367Z,50.05
2023-05-05T00:07:28.894Z,50.08
2023-05-05T00:12:34.432Z,49.99
2023-05-05T00:17:39.951Z,50.28
2023-05-05T00:22:45.443Z,50.35
2023-05-05T00:27:50.940Z,50.42
2023-05-05T00:32:57.463Z,50.30
2023-05-05T00:38:04.320Z,50.65
2023-05-05T00:43:09.986Z,50.73
2023-05-05T00:48:17.997Z,50.65
2023-05-05T00:53:23.936Z,50.81
2023-05-05T00:58:31.400Z,50.88
2023-05-05T01:03:43.296Z,50.94
2023-05-05T01:09:10.174Z,50.96
2023-05-05T01:14:22.920Z,51.02
2023-05-05T01:19:55.746Z,51.05
2023-05-05T01:25:20.715Z,51.01
2023-05-05T01:31:03.359Z,51.07
2023-05-05T01:36:29.709Z,51.06
2023-05-05T01:41:45.502Z,51.03
2023-05-05T01:46:53.212Z,50.96
2023-05-05T01:51:59.569Z,50.97
2023-05-05T01:57:08.519Z,50.91
2023-05-05T02:02:15.793Z,50.72
2023-05-05T02:07:22.826Z,50.77
2023-05-05T02:12:29.943Z,50.70
2023-05-05T02:17:35.905Z,50.67
2023-05-05T02:22:42.690Z,50.47
2023-05-05T02:27:49.568Z,50.59
2023-05-05T02:33:01.197Z,50.49
2023-05-05T02:38:09.467Z,50.29
2023-05-05T02:43:19.898Z,50.17
2023-05-05T02:48:27.742Z,49.86
2023-05-05T02:53:34.979Z,49.89
2023-05-05T02:58:46.268Z,49.68
2023-05-05T03:04:00.958Z,49.48
2023-05-05T03:09:16.909Z,49.09
2023-05-05T03:14:24.306Z,48.95
2023-05-05T03:19:30.886Z,48.71
2023-05-05T03:24:38.191Z,48.56
2023-05-05T03:29:45.323Z,48.27
2023-05-05T03:34:52.101Z,48.24
2023-05-05T03:39:59.236Z,48.05
2023-05-05T03:45:05.546Z,48.00
2023-05-05T03:50:11.448Z,47.90
2023-05-05T03:55:17.309Z,48.00
2023-05-05T04:00:23.106Z,48.01
2023-05-05T04:05:29.673Z,47.95
2023-05-05T04:10:35.853Z,47.94
2023-05-05T04:15:47.056Z,47.87
2023-05-05T04:20:52.853Z,48.06
2023-05-05T04:25:59.472Z,48.12
2023-05-05T04:31:06.669Z,47.93
2023-05-05T04:36:13.817Z,48.41
2023-05-05T04:41:19.689Z,48.47
2023-05-05T04:46:26.597Z,48.48
2023-05-05T04:51:33.419Z,48.69
2023-05-05T04:56:39.087Z,48.84
2023-05-05T05:01:44.789Z,49.02
2023-05-05T05:06:50.694Z,49.39
2023-05-05T05:12:02.908Z,49.55
2023-05-05T05:17:08.756Z,49.81
2023-05-05T05:22:14.549Z,49.93
2023-05-05T05:27:20.819Z,50.63
2023-05-05T05:32:27.032Z,50.60
2023-05-05T05:37:32.890Z,51.20
2023-05-05T05:42:40.163Z,50.90
2023-05-05T05:47:46.094Z,52.20
2023-05-05T05:52:51.954Z,52.32
2023-05-05T05:57:57.721Z,52.59
2023-05-05T06:03:03.750Z,52.84
2023-05-05T06:08:11.129Z,53.06
2023-05-05T06:13:18.428Z,53.16
2023-05-05T06:18:25.722Z,53.10
2023-05-05T06:23:31.903Z,53.94
2023-05-05T06:28:39.526Z,53.09
2023-05-05T06:33:45.157Z,53.35
2023-05-05T06:38:50.971Z,53.59
2023-05-05T06:43:56.406Z,54.35
2023-05-05T06:49:01.998Z,54.31
2023-05-05T06:54:07.742Z,54.43
2023-05-05T06:59:13.252Z,54.17
2023-05-05T07:04:18.908Z,54.32
2023-05-05T07:09:24.577Z,55.04
2023-05-05T07:14:30.033Z,54.82
2023-05-05T07:19:35.468Z,54.99
2023-05-05T07:24:41.072Z,55.29
2023-05-05T07:29:46.778Z,55.27
2023-05-05T07:34:52.487Z,55.33
2023-05-05T07:39:57.984Z,55.11
2023-05-05T07:45:03.659Z,55.52
2023-05-05T07:50:10.326Z,55.23
2023-05-05T07:55:16.153Z,54.85
2023-05-05T08:00:22.056Z,55.05
2023-05-05T08:05:27.583Z,55.45
2023-05-05T08:10:33.295Z,55.34
2023-05-05T08:15:38.830Z,55.20
2023-05-05T08:20:44.391Z,54.81
2023-05-05T08:25:50.774Z,55.26
2023-05-05T08:30:56.296Z,55.22
2023-05-05T08:36:03.097Z,55.01
2023-05-05T08:41:10.868Z,54.15
2023-05-05T08:46:17.163Z,54.57
2023-05-05T08:51:25.267Z,53.50
2023-05-05T08:56:39.636Z,53.66
2023-05-05T09:01:46.168Z,54.01
2023-05-05T09:06:52.247Z,53.79
2023-05-05T09:12:02.525Z,54.19
2023-05-05T09:17:09.786Z,54.06
2023-05-05T09:22:15.382Z,53.34
2023-05-05T09:27:23.570Z,52.70
2023-05-05T09:32:30.604Z,52.56
2023-05-05T09:37:36.245Z,52.66
2023-05-05T09:42:42.399Z,52.78
2023-05-05T09:47:49.604Z,52.49
2023-05-05T09:53:05.302Z,51.61
2023-05-05T09:58:28.326Z,51.39
2023-05-05T10:03:33.829Z,50.61
2023-05-05T10:08:39.344Z,51.14
2023-05-05T10:13:49.011Z,50.18
2023-05-05T10:18:54.821Z,50.17
2023-05-05T10:24:06.290Z,49.93
2023-05-05T10:29:31.946Z,49.46
2023-05-05T10:34:56.960Z,49.22
2023-05-05T10:40:03.671Z,49.15
2023-05-05T10:45:18.518Z,48.74
2023-05-05T10:50:30.165Z,48.40
2023-05-05T10:55:42.909Z,47.80
2023-05-05T11:00:51.399Z,48.05
2023-05-05T11:06:08.832Z,48.03
2023-05-05T11:11:14.731Z,47.66
2023-05-05T11:16:47.382Z,47.24
2023-05-05T11:22:03.478Z,47.24
2023-05-05T11:32:43.146Z,47.04
2023-05-05T11:37:52.524Z,46.64
2023-05-05T11:43:07.665Z,46.48
2023-05-05T11:48:28.686Z,46.56
2023-05-05T11:54:00.651Z,45.48
2023-05-05T11:59:11.640Z,46.28
2023-05-05T12:04:18.310Z,46.18
2023-05-05T12:09:24.800Z,45.99
2023-05-05T12:14:33.791Z,45.96
2023-05-05T12:19:48.164Z,45.66
2023-05-05T12:24:58.358Z,44.77
2023-05-05T12:30:18.229Z,45.33
2023-05-05T12:35:24.041Z,44.65
2023-05-05T12:40:48.867Z,44.31
2023-05-05T12:46:17.825Z,43.86
2023-05-05T12:51:24.276Z,43.88
2023-05-05T12:56:41.158Z,44.04
2023-05-05T13:02:02.972Z,43.79
2023-05-05T13:07:13.763Z,43.29
2023-05-05T13:18:16.354Z,42.70
2023-05-05T13:23:22.711Z,42.24
2023-05-05T13:28:28.844Z,42.77
2023-05-05T13:33:37.768Z,42.37
2023-05-05T13:38:48.044Z,41.40
2023-05-05T13:43:53.916Z,41.92
2023-05-05T13:48:59.429Z,41.65
2023-05-05T13:54:05.490Z,41.10
2023-05-05T13:59:12.957Z,40.68
2023-05-05T14:04:18.557Z,40.40
2023-05-05T14:09:24.769Z,40.27
2023-05-05T14:14:30.561Z,39.74
2023-05-05T14:19:36.568Z,39.19
2023-05-05T14:24:43.788Z,39.00
2023-05-05T14:29:55.432Z,38.87
2023-05-05T14:35:08.780Z,38.96
2023-05-05T14:40:23.746Z,38.69
2023-05-05T14:45:29.771Z,38.64
2023-05-05T14:50:35.858Z,37.86
2023-05-05T14:55:41.530Z,38.17
2023-05-05T15:00:47.870Z,37.58
2023-05-05T15:05:53.496Z,37.51
2023-05-05T15:11:01.032Z,36.68
2023-05-05T15:16:10.541Z,36.68
2023-05-05T15:21:17.909Z,36.73
2023-05-05T15:26:24.220Z,37.00
2023-05-05T15:31:29.867Z,38.03
2023-05-05T15:36:37.075Z,37.52
2023-05-05T15:41:42.612Z,37.41
2023-05-05T15:46:50.356Z,37.06
2023-05-05T15:51:55.863Z,37.34
2023-05-05T15:57:03.284Z,39.07
2023-05-05T16:02:08.871Z,36.82
2023-05-05T16:07:14.555Z,35.33
2023-05-05T16:12:21.038Z,34.61
2023-05-05T16:17:26.633Z,35.33
2023-05-05T16:22:32.148Z,34.84
2023-05-05T16:27:37.672Z,34.71
2023-05-05T16:32:46.604Z,35.82
2023-05-05T16:37:52.747Z,34.63
2023-05-05T16:42:59.154Z,34.25
2023-05-05T16:48:07.418Z,34.55
2023-05-05T16:53:16.770Z,35.40
2023-05-05T16:58:23.247Z,35.58
2023-05-05T17:03:29.692Z,35.57
2023-05-05T17:08:37.810Z,35.07
2023-05-05T17:13:49.590Z,35.26
2023-05-05T17:19:05.014Z,35.76
2023-05-05T17:24:11.929Z,35.96
2023-05-05T17:29:19.095Z,36.51
2023-05-05T17:34:24.679Z,36.88
2023-05-05T17:39:31.324Z,37.91
2023-05-05T17:44:36.843Z,37.79
2023-05-05T17:49:42.668Z,38.16
2023-05-05T17:54:49.108Z,38.66
2023-05-05T17:59:55.632Z,38.79
2023-05-05T18:05:01.775Z,39.16
2023-05-05T18:10:10.760Z,39.38
2023-05-05T18:15:17.131Z,39.45
2023-05-05T18:20:22.836Z,39.83
2023-05-05T18:25:28.425Z,40.10
2023-05-05T18:30:34.314Z,40.30
2023-05-05T18:35:39.827Z,40.74
2023-05-05T18:40:50.135Z,41.09
2023-05-05T18:45:55.894Z,41.50
2023-05-05T18:51:05.751Z,41.17
2023-05-05T18:56:21.822Z,41.44
2023-05-05T19:01:27.720Z,41.70
2023-05-05T19:06:33.501Z,41.90
2023-05-05T19:11:40.725Z,42.05
2023-05-05T19:16:46.379Z,42.40
2023-05-05T19:21:52.278Z,42.64
2023-05-05T19:26:57.834Z,42.89
2023-05-05T19:32:12.850Z,43.15
2023-05-05T19:37:18.603Z,43.38
2023-05-05T19:42:24.224Z,43.61
2023-05-05T19:47:31.516Z,44.03
2023-05-05T19:52:38.434Z,44.16
2023-05-05T19:57:43.993Z,44.28
2023-05-05T20:02:49.750Z,44.43
2023-05-05T20:07:55.523Z,44.53
2023-05-05T20:13:01.073Z,44.73
2023-05-05T20:18:07.995Z,44.69
2023-05-05T20:23:14.338Z,44.75
2023-05-05T20:28:19.931Z,44.90
2023-05-05T20:33:26.411Z,45.02
2023-05-05T20:38:32.023Z,45.05
2023-05-05T20:43:38.436Z,45.08
2023-05-05T20:48:45.054Z,45.31
2023-05-05T20:53:50.814Z,45.38
2023-05-05T20:58:56.906Z,45.68
2023-05-05T21:04:02.818Z,45.69
2023-05-05T21:09:08.367Z,45.79
2023-05-05T21:14:13.906Z,46.26
2023-05-05T21:19:19.693Z,45.93
2023-05-05T21:24:25.283Z,45.81
2023-05-05T21:29:32.406Z,45.94
2023-05-05T21:34:40.218Z,44.07
2023-05-05T21:39:45.859Z,45.39
2023-05-05T21:44:53.080Z,45.64
2023-05-05T21:49:59.897Z,45.77
2023-05-05T21:55:10.066Z,46.02
2023-05-05T22:00:16.948Z,46.08
2023-05-05T22:05:23.510Z,45.98
2023-05-05T22:10:29.334Z,46.08
2023-05-05T22:15:45.981Z,46.17
2023-05-05T22:20:44.445Z,46.31
2023-05-05T22:25:50.362Z,46.20
2023-05-05T22:30:55.967Z,46.20
2023-05-05T22:36:01.446Z,46.15
2023-05-05T22:41:08.464Z,45.89
2023-05-05T22:46:15.188Z,46.20
2023-05-05T22:51:20.639Z,46.16
2023-05-05T22:56:26.218Z,46.11
2023-05-05T23:01:32.265Z,46.09
2023-05-05T23:06:39.371Z,45.92
2023-05-05T23:11:45.957Z,45.88
2023-05-05T23:16:51.506Z,46.01
2023-05-05T23:21:57.091Z,46.04
2023-05-05T23:27:03.086Z,46.05
2023-05-05T23:32:08.858Z,46.22
2023-05-05T23:37:15.025Z,46.01
2023-05-05T23:42:20.648Z,45.95
2023-05-05T23:47:26.121Z,45.97
2023-05-05T23:52:31.687Z,46.20
2023-05-05T23:57:44.685Z,46.27
